Time;durP1;ratioP1;P1;durP2;ratioP2;P2;SDS_P1;SDS_P2;PMS_P1;PMS_P2;Temp;Humidity;BMP_temperature;BMP_pressure;BME280_temperature;BME280_humidity;BME280_pressure;Samples;Min_cycle;Max_cycle;Signal;HPM_P1;HPM_P2
2023/09/11 00:01:21;;;;;;;;;;;19.90;99.90;;;;;;7311133;19;9213;-68
2023/09/11 00:03:52;;;;;;;;;;;19.90;99.90;;;;;;7314329;19;10215;-68
2023/09/11 00:06:21;;;;;;;;;;;19.90;99.90;;;;;;7312706;19;9241;-68
2023/09/11 00:08:53;;;;;;;;;;;19.90;99.90;;;;;;7312157;19;9463;-68
2023/09/11 00:11:22;;;;;;;;;;;19.80;99.90;;;;;;7314236;19;9467;-68
2023/09/11 00:13:51;;;;;;;;;;;19.70;99.90;;;;;;7311317;19;9252;-68
2023/09/11 00:16:20;;;;;;;;;;;19.70;99.90;;;;;;7314140;19;12485;-68
2023/09/11 00:19:12;;;;;;;;;;;19.70;99.90;;;;;;7312463;19;9755;-68
2023/09/11 00:21:41;;;;;;;;;;;19.70;99.90;;;;;;7310963;19;10786;-68
2023/09/11 00:24:33;;;;;;;;;;;19.70;99.90;;;;;;7310332;19;10142;-68
2023/09/11 00:27:02;;;;;;;;;;;19.60;99.90;;;;;;7311351;19;10170;-68
2023/09/11 00:29:31;;;;;;;;;;;19.50;99.90;;;;;;7312795;19;9182;-68
2023/09/11 00:32:01;;;;;;;;;;;19.50;99.90;;;;;;7316207;19;10629;-68
2023/09/11 00:34:30;;;;;;;;;;;19.50;99.90;;;;;;7315252;19;9535;-68
2023/09/11 00:36:59;;;;;;;;;;;19.50;99.90;;;;;;7312700;19;9447;-68
2023/09/11 00:39:29;;;;;;;;;;;19.50;99.90;;;;;;7312089;19;9489;-68
2023/09/11 00:42:00;;;;;;;;;;;19.50;99.90;;;;;;7312070;19;9607;-68
2023/09/11 00:44:29;;;;;;;;;;;19.50;99.90;;;;;;7316032;19;9291;-68
2023/09/11 00:46:59;;;;;;;;;;;19.40;99.90;;;;;;7310917;19;9448;-68
2023/09/11 00:49:28;;;;;;;;;;;19.30;99.90;;;;;;7312615;19;9120;-68
2023/09/11 00:51:58;;;;;;;;;;;19.30;99.90;;;;;;7308745;19;9494;-68
2023/09/11 00:54:28;;;;;;;;;;;19.30;99.90;;;;;;7312048;19;12077;-68
2023/09/11 00:57:02;;;;;;;;;;;19.20;99.90;;;;;;7306763;19;9322;-68
2023/09/11 00:59:31;;;;;;;;;;;19.20;99.90;;;;;;7316123;19;9532;-68
2023/09/11 01:02:01;;;;;;;;;;;19.10;99.90;;;;;;7307596;19;9536;-68
2023/09/11 01:04:31;;;;;;;;;;;19.20;99.90;;;;;;7313103;19;9297;-68
2023/09/11 01:07:00;;;;;;;;;;;19.10;99.90;;;;;;7308005;19;10224;-68
2023/09/11 01:09:29;;;;;;;;;;;19.10;99.90;;;;;;7311766;19;10093;-68
2023/09/11 01:12:20;;;;;;;;;;;19.10;99.90;;;;;;7313296;19;9397;-68
2023/09/11 01:14:50;;;;;;;;;;;19.10;99.90;;;;;;7315049;19;9265;-68
2023/09/11 01:17:37;;;;;;;;;;;19.10;99.90;;;;;;7314677;19;9280;-68
2023/09/11 01:20:45;;;;;;;;;;;19.10;99.90;;;;;;7310150;19;9245;-68
2023/09/11 01:23:50;;;;;;;;;;;19.10;99.90;;;;;;7313336;19;9597;-68
2023/09/11 01:26:53;;;;;;;;;;;19.10;99.90;;;;;;7309687;19;9341;-68
2023/09/11 01:29:29;;;;;;;;;;;19.00;99.90;;;;;;7316505;19;9112;-67
2023/09/11 01:32:02;;;;;;;;;;;19.00;99.90;;;;;;7314052;19;9508;-68
2023/09/11 01:34:31;;;;;;;;;;;19.00;99.90;;;;;;7310672;19;9864;-68
2023/09/11 01:37:00;;;;;;;;;;;19.00;99.90;;;;;;7313227;19;9294;-68
2023/09/11 01:39:29;;;;;;;;;;;18.90;99.90;;;;;;7310259;19;9307;-68
2023/09/11 01:42:05;;;;;;;;;;;18.90;99.90;;;;;;7313929;19;9277;-68
2023/09/11 01:44:44;;;;;;;;;;;18.80;99.90;;;;;;7310361;19;9453;-68
2023/09/11 01:47:34;;;;;;;;;;;18.90;99.90;;;;;;7310107;19;9559;-67
2023/09/11 01:50:07;;;;;;;;;;;18.80;99.90;;;;;;7311942;19;9047;-68
2023/09/11 01:52:38;;;;;;;;;;;18.80;99.90;;;;;;7310677;19;9345;-68
2023/09/11 01:55:10;;;;;;;;;;;18.80;99.90;;;;;;7310552;19;10167;-68
2023/09/11 01:57:39;;;;;;;;;;;18.80;99.90;;;;;;7313104;19;9172;-68
2023/09/11 02:00:12;;;;;;;;;;;18.90;99.90;;;;;;7313584;19;9324;-68
2023/09/11 02:02:41;;;;;;;;;;;19.00;99.90;;;;;;7312488;19;9211;-68
2023/09/11 02:05:11;;;;;;;;;;;18.90;99.90;;;;;;7309748;19;9305;-67
2023/09/11 02:07:40;;;;;;;;;;;18.80;99.90;;;;;;7311521;19;9305;-68
2023/09/11 02:10:10;;;;;;;;;;;18.90;99.90;;;;;;7312920;19;9306;-68
2023/09/11 02:12:39;;;;;;;;;;;18.80;99.90;;;;;;7311004;19;9357;-68
2023/09/11 02:15:12;;;;;;;;;;;18.80;99.90;;;;;;7308453;19;9265;-68
2023/09/11 02:17:41;;;;;;;;;;;18.80;99.90;;;;;;7311539;19;9118;-68
2023/09/11 02:20:12;;;;;;;;;;;18.70;99.90;;;;;;7312965;19;12492;-67
2023/09/11 02:22:41;;;;;;;;;;;18.70;99.90;;;;;;7308950;19;11185;-68
2023/09/11 02:25:11;;;;;;;;;;;18.60;99.90;;;;;;7308217;19;9559;-68
2023/09/11 02:27:40;;;;;;;;;;;18.60;99.90;;;;;;7307392;19;9796;-68
2023/09/11 02:30:13;;;;;;;;;;;18.70;99.90;;;;;;7309634;19;9552;-68
2023/09/11 02:32:42;;;;;;;;;;;18.70;99.90;;;;;;7310469;19;9545;-68
2023/09/11 02:35:11;;;;;;;;;;;18.70;99.90;;;;;;7310192;19;9405;-68
2023/09/11 02:37:40;;;;;;;;;;;18.70;99.90;;;;;;7309677;19;9505;-68
2023/09/11 02:40:10;;;;;;;;;;;18.80;99.90;;;;;;7308919;19;9296;-68
2023/09/11 02:42:39;;;;;;;;;;;18.70;99.90;;;;;;7308236;19;9427;-68
2023/09/11 02:45:09;;;;;;;;;;;18.80;99.90;;;;;;7311005;19;9358;-68
2023/09/11 02:47:41;;;;;;;;;;;18.80;99.90;;;;;;7310429;19;9237;-67
2023/09/11 02:50:30;;;;;;;;;;;18.70;99.90;;;;;;7304139;19;9349;-68
2023/09/11 02:52:59;;;;;;;;;;;18.80;99.90;;;;;;7308521;19;9324;-68
2023/09/11 02:55:28;;;;;;;;;;;18.80;99.90;;;;;;7311375;19;9419;-68
2023/09/11 02:57:57;;;;;;;;;;;18.80;99.90;;;;;;7310705;19;9289;-68
2023/09/11 03:00:26;;;;;;;;;;;18.70;99.90;;;;;;7317686;19;9257;-68
2023/09/11 03:02:58;;;;;;;;;;;18.70;99.90;;;;;;7308099;19;10059;-68
2023/09/11 03:05:47;;;;;;;;;;;18.70;99.90;;;;;;7312418;19;9266;-68
2023/09/11 03:08:16;;;;;;;;;;;18.70;99.90;;;;;;7313949;19;9369;-68
2023/09/11 03:10:45;;;;;;;;;;;18.80;99.90;;;;;;7316877;19;9306;-68
2023/09/11 03:13:14;;;;;;;;;;;18.90;99.90;;;;;;7316062;19;9270;-68
2023/09/11 03:15:43;;;;;;;;;;;18.80;99.90;;;;;;7318621;19;9508;-68
2023/09/11 03:18:15;;;;;;;;;;;18.80;99.90;;;;;;7316636;19;9372;-68
2023/09/11 03:20:45;;;;;;;;;;;18.90;99.90;;;;;;7317305;19;9233;-67
2023/09/11 03:23:14;;;;;;;;;;;18.80;99.90;;;;;;7314424;19;9705;-67
2023/09/11 03:25:45;;;;;;;;;;;18.90;99.90;;;;;;7317265;19;9510;-68
2023/09/11 03:28:14;;;;;;;;;;;18.90;99.90;;;;;;7315918;19;9297;-68
2023/09/11 03:30:43;;;;;;;;;;;18.80;99.90;;;;;;7318762;19;9502;-68
2023/09/11 03:33:35;;;;;;;;;;;18.70;99.90;;;;;;7316748;19;9508;-68
2023/09/11 03:36:04;;;;;;;;;;;18.80;99.90;;;;;;7311469;19;10892;-68
2023/09/11 03:38:33;;;;;;;;;;;18.90;99.90;;;;;;7319841;19;9246;-68
2023/09/11 03:41:02;;;;;;;;;;;18.80;99.90;;;;;;7315742;19;9183;-68
2023/09/11 03:43:31;;;;;;;;;;;18.70;99.90;;;;;;7314051;19;9595;-68
2023/09/11 03:46:01;;;;;;;;;;;18.60;99.90;;;;;;7316277;19;9391;-68
2023/09/11 03:48:30;;;;;;;;;;;18.50;99.90;;;;;;7309408;19;9610;-68
2023/09/11 03:51:01;;;;;;;;;;;18.40;99.90;;;;;;7316909;19;9282;-68
2023/09/11 03:53:52;;;;;;;;;;;18.30;99.90;;;;;;7316546;19;9584;-68
2023/09/11 03:56:21;;;;;;;;;;;18.30;99.90;;;;;;7311478;19;9258;-68
2023/09/11 03:58:50;;;;;;;;;;;18.30;99.90;;;;;;7316604;19;9340;-68
2023/09/11 04:01:19;;;;;;;;;;;18.20;99.90;;;;;;7314534;19;9446;-68
2023/09/11 04:03:48;;;;;;;;;;;18.20;99.90;;;;;;7314855;19;9566;-68
2023/09/11 04:06:20;;;;;;;;;;;18.20;99.90;;;;;;7309006;19;11718;-68
2023/09/11 04:08:49;;;;;;;;;;;18.20;99.90;;;;;;7317809;19;9602;-68
2023/09/11 04:11:18;;;;;;;;;;;18.30;99.90;;;;;;7312464;19;9749;-68
2023/09/11 04:13:47;;;;;;;;;;;18.20;99.90;;;;;;7315124;19;9305;-68
2023/09/11 04:16:16;;;;;;;;;;;18.20;99.90;;;;;;7313237;19;10345;-68
2023/09/11 04:18:46;;;;;;;;;;;18.20;99.90;;;;;;7313581;19;9185;-68
2023/09/11 04:21:16;;;;;;;;;;;18.30;99.90;;;;;;7314419;19;9472;-68
2023/09/11 04:23:48;;;;;;;;;;;18.40;99.90;;;;;;7313798;19;9322;-68
2023/09/11 04:26:17;;;;;;;;;;;18.30;99.90;;;;;;7311603;19;9270;-68
2023/09/11 04:28:46;;;;;;;;;;;18.30;99.90;;;;;;7313044;19;9289;-68
2023/09/11 04:31:15;;;;;;;;;;;18.20;99.90;;;;;;7309648;19;10134;-68
2023/09/11 04:33:44;;;;;;;;;;;18.20;99.90;;;;;;7308389;19;10237;-68
2023/09/11 04:36:13;;;;;;;;;;;18.20;99.90;;;;;;7315394;19;9440;-68
2023/09/11 04:38:44;;;;;;;;;;;18.30;99.90;;;;;;7313959;19;9297;-68
2023/09/11 04:41:16;;;;;;;;;;;18.30;99.90;;;;;;7310788;19;9273;-68
2023/09/11 04:43:45;;;;;;;;;;;18.30;99.90;;;;;;7311607;19;9481;-68
2023/09/11 04:46:14;;;;;;;;;;;18.40;99.90;;;;;;7315663;19;9215;-68
2023/09/11 04:48:43;;;;;;;;;;;18.50;99.90;;;;;;7305033;19;8945;-68
2023/09/11 04:51:12;;;;;;;;;;;18.40;99.90;;;;;;7310775;19;8945;-68
2023/09/11 04:53:41;;;;;;;;;;;18.40;99.90;;;;;;7306799;19;10744;-68
2023/09/11 04:56:10;;;;;;;;;;;18.50;99.90;;;;;;7311293;19;9384;-68
2023/09/11 04:58:42;;;;;;;;;;;18.40;99.90;;;;;;7314126;19;9518;-68
2023/09/11 05:01:31;;;;;;;;;;;18.60;99.90;;;;;;7316286;19;9290;-68
2023/09/11 05:04:00;;;;;;;;;;;18.60;99.90;;;;;;7317152;19;9649;-68
2023/09/11 05:06:30;;;;;;;;;;;18.60;99.90;;;;;;7317300;19;9395;-68
2023/09/11 05:08:59;;;;;;;;;;;18.50;99.90;;;;;;7315731;19;9331;-68
2023/09/11 05:11:28;;;;;;;;;;;18.40;99.90;;;;;;7317362;19;9423;-68
2023/09/11 05:13:59;;;;;;;;;;;18.40;99.90;;;;;;7304660;19;9307;-68
2023/09/11 05:16:29;;;;;;;;;;;18.50;99.90;;;;;;7307324;19;9294;-68
2023/09/11 05:18:58;;;;;;;;;;;18.60;99.90;;;;;;7309202;19;9467;-74
2023/09/11 05:21:28;;;;;;;;;;;18.70;99.90;;;;;;7315869;19;9588;-68
2023/09/11 05:23:57;;;;;;;;;;;18.90;99.90;;;;;;7309732;19;9237;-69
2023/09/11 05:26:26;;;;;;;;;;;19.00;99.90;;;;;;7315379;19;9277;-67
2023/09/11 05:28:55;;;;;;;;;;;19.00;99.90;;;;;;7311641;19;9407;-66
2023/09/11 05:31:27;;;;;;;;;;;19.00;99.90;;;;;;7306731;19;9455;-66
2023/09/11 05:33:56;;;;;;;;;;;19.00;99.90;;;;;;7309134;19;9236;-66
2023/09/11 05:36:25;;;;;;;;;;;19.00;99.90;;;;;;7313225;19;9313;-66
2023/09/11 05:38:52;;;;;;;;;;;19.10;99.90;;;;;;7310937;19;9250;-66
2023/09/11 05:41:22;;;;;;;;;;;19.10;99.90;;;;;;7313122;19;10141;-67
2023/09/11 05:43:51;;;;;;;;;;;19.10;99.90;;;;;;7314767;19;10081;-66
2023/09/11 05:46:20;;;;;;;;;;;19.10;99.90;;;;;;7310513;19;9360;-66
2023/09/11 05:48:52;;;;;;;;;;;19.20;99.90;;;;;;7315132;19;9246;-67
2023/09/11 05:51:21;;;;;;;;;;;19.30;99.90;;;;;;7308114;19;9298;-66
2023/09/11 05:53:50;;;;;;;;;;;19.30;99.90;;;;;;7314886;19;9237;-66
2023/09/11 05:56:20;;;;;;;;;;;19.20;99.90;;;;;;7310268;19;9269;-66
2023/09/11 05:58:49;;;;;;;;;;;19.20;99.90;;;;;;7313484;19;9246;-66
2023/09/11 06:01:18;;;;;;;;;;;19.30;99.90;;;;;;7308261;19;12007;-67
2023/09/11 06:03:47;;;;;;;;;;;19.30;99.90;;;;;;7311231;19;10159;-66
2023/09/11 06:06:19;;;;;;;;;;;19.50;99.90;;;;;;7299003;19;9333;-67
2023/09/11 06:08:48;;;;;;;;;;;19.40;99.90;;;;;;7313805;19;9196;-66
2023/09/11 06:11:17;;;;;;;;;;;19.30;99.90;;;;;;7308278;19;9040;-66
2023/09/11 06:13:48;;;;;;;;;;;19.40;99.90;;;;;;7313600;19;9262;-66
2023/09/11 06:16:17;;;;;;;;;;;19.30;99.90;;;;;;7309987;19;10103;-66
2023/09/11 06:18:47;;;;;;;;;;;19.30;99.90;;;;;;7309485;19;9395;-67
2023/09/11 06:21:19;;;;;;;;;;;19.30;99.90;;;;;;7311231;19;9720;-65
2023/09/11 06:23:49;;;;;;;;;;;19.30;99.90;;;;;;7307872;19;9272;-67
2023/09/11 06:26:18;;;;;;;;;;;19.40;99.90;;;;;;7307187;19;9697;-67
2023/09/11 06:28:47;;;;;;;;;;;19.30;99.90;;;;;;7306611;19;9330;-67
2023/09/11 06:31:16;;;;;;;;;;;19.30;99.90;;;;;;7320180;19;9426;-67
2023/09/11 06:33:45;;;;;;;;;;;19.30;99.90;;;;;;7313023;19;9340;-67
2023/09/11 06:36:15;;;;;;;;;;;19.40;99.90;;;;;;7307327;19;9531;-67
2023/09/11 06:38:46;;;;;;;;;;;19.40;99.90;;;;;;7314899;19;9608;-67
2023/09/11 06:41:35;;;;;;;;;;;19.50;99.90;;;;;;7311009;19;10739;-66
2023/09/11 06:44:04;;;;;;;;;;;19.60;99.90;;;;;;7311318;19;9588;-67
2023/09/11 06:46:33;;;;;;;;;;;19.70;99.90;;;;;;7310576;19;9576;-68
2023/09/11 06:49:22;;;;;;;;;;;19.80;99.90;;;;;;7314481;19;9600;-67
2023/09/11 06:51:51;;;;;;;;;;;19.80;99.90;;;;;;7317893;19;9398;-67
2023/09/11 06:54:23;;;;;;;;;;;20.00;99.90;;;;;;7309653;19;9418;-68
2023/09/11 06:56:52;;;;;;;;;;;20.10;99.90;;;;;;7316499;19;9338;-67
2023/09/11 06:59:20;;;;;;;;;;;20.30;99.90;;;;;;7318235;19;11216;-67
2023/09/11 07:01:50;;;;;;;;;;;20.30;99.90;;;;;;7318163;19;9452;-67
2023/09/11 07:04:19;;;;;;;;;;;20.50;99.90;;;;;;7316711;19;9560;-67
2023/09/11 07:06:48;;;;;;;;;;;20.50;99.90;;;;;;7316392;19;10504;-67
2023/09/11 07:09:17;;;;;;;;;;;20.70;99.90;;;;;;7316558;19;9218;-67
2023/09/11 07:11:49;;;;;;;;;;;20.90;99.90;;;;;;7318005;19;9470;-67
2023/09/11 07:14:21;;;;;;;;;;;21.10;99.90;;;;;;7315880;19;9246;-67
2023/09/11 07:17:10;;;;;;;;;;;21.40;99.90;;;;;;7314288;19;9386;-67
2023/09/11 07:19:39;;;;;;;;;;;21.80;99.90;;;;;;7311566;19;9783;-67
2023/09/11 07:22:08;;;;;;;;;;;22.20;99.90;;;;;;7312398;19;10342;-67
2023/09/11 07:24:38;;;;;;;;;;;22.40;99.90;;;;;;7317713;19;9293;-67
2023/09/11 07:27:10;;;;;;;;;;;22.80;99.90;;;;;;7317370;19;11938;-67
2023/09/11 07:29:40;;;;;;;;;;;23.00;99.90;;;;;;7315936;19;9158;-67
2023/09/11 07:32:09;;;;;;;;;;;23.20;99.90;;;;;;7314612;19;9242;-67
2023/09/11 07:34:58;;;;;;;;;;;23.10;99.90;;;;;;7313272;19;9294;-67
2023/09/11 07:37:27;;;;;;;;;;;23.40;99.90;;;;;;7314272;19;9351;-67
2023/09/11 07:39:57;;;;;;;;;;;23.30;99.90;;;;;;7315198;19;9522;-67
2023/09/11 07:42:29;;;;;;;;;;;23.30;99.90;;;;;;7314904;19;9229;-67
2023/09/11 07:44:58;;;;;;;;;;;23.40;99.90;;;;;;7314737;19;9229;-68
2023/09/11 07:47:27;;;;;;;;;;;23.60;99.90;;;;;;7317204;19;10383;-67
2023/09/11 07:49:56;;;;;;;;;;;23.50;99.90;;;;;;7311863;19;10329;-67
2023/09/11 07:52:25;;;;;;;;;;;23.60;99.90;;;;;;7315589;19;9245;-67
2023/09/11 07:54:54;;;;;;;;;;;23.60;99.90;;;;;;7315440;19;9454;-67
2023/09/11 07:57:24;;;;;;;;;;;23.80;99.90;;;;;;7316737;19;9334;-68
2023/09/11 08:00:17;;;;;;;;;;;24.00;99.90;;;;;;7311731;19;9293;-67
2023/09/11 08:02:48;;;;;;;;;;;24.10;99.90;;;;;;7312207;19;9225;-67
2023/09/11 08:05:17;;;;;;;;;;;24.00;99.90;;;;;;7313972;19;9229;-67
2023/09/11 08:07:46;;;;;;;;;;;24.10;99.90;;;;;;7319541;19;9176;-68
2023/09/11 08:10:15;;;;;;;;;;;24.10;99.90;;;;;;7313572;19;11083;-67
2023/09/11 08:13:04;;;;;;;;;;;24.00;99.90;;;;;;7312326;19;9292;-67
2023/09/11 08:15:35;;;;;;;;;;;24.10;99.90;;;;;;7315782;19;10222;-67
2023/09/11 08:18:05;;;;;;;;;;;24.10;99.90;;;;;;7316022;19;9301;-67
2023/09/11 08:20:33;;;;;;;;;;;24.00;99.90;;;;;;7313930;19;9277;-67
2023/09/11 08:23:02;;;;;;;;;;;24.00;99.90;;;;;;7313196;19;10737;-67
2023/09/11 08:25:32;;;;;;;;;;;24.00;99.90;;;;;;7314215;19;9281;-67
2023/09/11 08:28:01;;;;;;;;;;;24.00;99.90;;;;;;7317185;19;10812;-68
2023/09/11 08:30:30;;;;;;;;;;;24.10;99.90;;;;;;7317596;19;9430;-68
2023/09/11 08:33:02;;;;;;;;;;;24.20;99.90;;;;;;7313422;19;9473;-67
2023/09/11 08:35:32;;;;;;;;;;;24.30;99.90;;;;;;7311485;19;10840;-68
2023/09/11 08:38:01;;;;;;;;;;;24.30;99.90;;;;;;7316019;19;9295;-67
2023/09/11 08:40:33;;;;;;;;;;;24.50;99.90;;;;;;7310865;19;10212;-67
2023/09/11 08:43:03;;;;;;;;;;;24.50;99.90;;;;;;7315303;19;9485;-67
2023/09/11 08:45:32;;;;;;;;;;;24.60;99.90;;;;;;7310334;19;9456;-68
2023/09/11 08:48:11;;;;;;;;;;;24.70;99.90;;;;;;7314383;19;9506;-67
2023/09/11 08:50:46;;;;;;;;;;;24.80;99.90;;;;;;7311902;19;9689;-67
2023/09/11 08:53:19;;;;;;;;;;;24.90;99.90;;;;;;7312878;19;9319;-68
2023/09/11 08:56:08;;;;;;;;;;;25.00;99.90;;;;;;7312473;19;9283;-67
2023/09/11 08:58:39;;;;;;;;;;;25.10;99.90;;;;;;7309547;19;9523;-67
2023/09/11 09:01:09;;;;;;;;;;;25.10;99.90;;;;;;7315950;19;9266;-68
2023/09/11 09:03:43;;;;;;;;;;;25.30;99.90;;;;;;7308481;19;9254;-68
2023/09/11 09:06:33;;;;;;;;;;;25.30;99.90;;;;;;7313617;19;9493;-67
2023/09/11 09:09:02;;;;;;;;;;;25.40;99.90;;;;;;7317804;19;9441;-67
2023/09/11 09:11:32;;;;;;;;;;;25.50;99.90;;;;;;7313155;19;9581;-68
2023/09/11 09:14:03;;;;;;;;;;;25.50;99.90;;;;;;7313765;19;9726;-68
2023/09/11 09:16:33;;;;;;;;;;;25.60;99.90;;;;;;7315594;19;10634;-67
2023/09/11 09:19:04;;;;;;;;;;;25.70;99.90;;;;;;7312645;19;9750;-67
2023/09/11 09:21:33;;;;;;;;;;;25.70;99.90;;;;;;7313988;19;11645;-68
2023/09/11 09:24:22;;;;;;;;;;;25.80;99.90;;;;;;7311848;19;9309;-68
2023/09/11 09:27:00;;;;;;;;;;;25.90;99.90;;;;;;7310328;19;9317;-68
2023/09/11 09:29:35;;;;;;;;;;;26.00;99.90;;;;;;7316642;19;9277;-67
2023/09/11 09:32:06;;;;;;;;;;;26.00;99.90;;;;;;7313109;19;9253;-68
2023/09/11 09:34:40;;;;;;;;;;;26.20;99.90;;;;;;7315862;19;9332;-67
2023/09/11 09:37:29;;;;;;;;;;;26.30;99.90;;;;;;7313011;19;9285;-68
2023/09/11 09:39:58;;;;;;;;;;;26.50;99.90;;;;;;7311884;19;9527;-68
2023/09/11 09:42:40;;;;;;;;;;;26.50;99.90;;;;;;7313662;19;9466;-67
2023/09/11 09:45:09;;;;;;;;;;;26.60;99.90;;;;;;7311688;19;9370;-67
2023/09/11 09:48:11;;;;;;;;;;;26.70;99.90;;;;;;7311532;19;9001;-68
2023/09/11 09:51:04;;;;;;;;;;;26.60;99.90;;;;;;7311747;19;12713;-68
2023/09/11 09:53:35;;;;;;;;;;;26.60;99.90;;;;;;7314328;19;9541;-67
2023/09/11 09:56:24;;;;;;;;;;;26.70;99.90;;;;;;7308655;19;9500;-67
2023/09/11 09:58:53;;;;;;;;;;;26.80;99.50;;;;;;7313680;19;9597;-68
2023/09/11 10:01:23;;;;;;;;;;;26.90;98.30;;;;;;7312239;19;9387;-67
2023/09/11 10:03:54;;;;;;;;;;;27.00;97.80;;;;;;7312069;19;9491;-68
2023/09/11 10:06:28;;;;;;;;;;;27.00;98.70;;;;;;7313716;19;9510;-68
2023/09/11 10:09:08;;;;;;;;;;;27.00;97.90;;;;;;7314610;19;9756;-68
2023/09/11 10:11:40;;;;;;;;;;;26.90;97.50;;;;;;7306967;19;9341;-69
2023/09/11 10:14:11;;;;;;;;;;;26.80;97.20;;;;;;7312971;19;10549;-69
2023/09/11 10:16:40;;;;;;;;;;;26.80;97.10;;;;;;7310351;19;10707;-69
2023/09/11 10:19:09;;;;;;;;;;;26.90;96.20;;;;;;7308685;19;9248;-69
2023/09/11 10:21:42;;;;;;;;;;;27.00;96.40;;;;;;7312991;19;9261;-71
2023/09/11 10:24:11;;;;;;;;;;;27.10;96.10;;;;;;7309137;19;9746;-70
2023/09/11 10:26:48;;;;;;;;;;;27.10;95.70;;;;;;7313354;19;10062;-70
2023/09/11 10:29:51;;;;;;;;;;;27.10;94.90;;;;;;7311653;19;9182;-71
2023/09/11 10:32:25;;;;;;;;;;;27.10;93.90;;;;;;7307914;19;9470;-69
2023/09/11 10:34:55;;;;;;;;;;;27.10;94.60;;;;;;7309286;19;9270;-69
2023/09/11 10:37:27;;;;;;;;;;;27.20;94.10;;;;;;7311680;19;9590;-69
2023/09/11 10:39:59;;;;;;;;;;;27.30;93.70;;;;;;7312540;19;9336;-70
2023/09/11 10:42:29;;;;;;;;;;;27.30;93.00;;;;;;7308116;19;10316;-70
2023/09/11 10:44:59;;;;;;;;;;;27.30;92.70;;;;;;7310496;19;9261;-70
2023/09/11 10:47:29;;;;;;;;;;;27.30;92.70;;;;;;7306422;19;9272;-70
2023/09/11 10:50:18;;;;;;;;;;;27.30;92.30;;;;;;7307859;19;9221;-70
2023/09/11 10:52:50;;;;;;;;;;;27.40;92.50;;;;;;7311704;19;9233;-70
2023/09/11 10:55:20;;;;;;;;;;;27.50;92.10;;;;;;7308848;19;9369;-70
2023/09/11 10:57:49;;;;;;;;;;;27.60;92.30;;;;;;7312407;19;9238;-70
2023/09/11 11:00:19;;;;;;;;;;;27.60;92.00;;;;;;7306389;19;9278;-70
2023/09/11 11:02:48;;;;;;;;;;;27.60;92.10;;;;;;7309559;19;11094;-70
2023/09/11 11:05:18;;;;;;;;;;;27.60;91.50;;;;;;7307010;19;10543;-70
2023/09/11 11:07:53;;;;;;;;;;;27.60;91.30;;;;;;7312085;19;9223;-70
2023/09/11 11:10:43;;;;;;;;;;;27.60;91.30;;;;;;7301370;19;9262;-71
2023/09/11 11:13:13;;;;;;;;;;;27.60;91.10;;;;;;7310295;19;9942;-70
2023/09/11 11:15:42;;;;;;;;;;;27.60;90.50;;;;;;7304953;19;9404;-68
2023/09/11 11:18:13;;;;;;;;;;;27.60;90.40;;;;;;7315660;19;9344;-69
2023/09/11 11:21:06;;;;;;;;;;;27.50;90.40;;;;;;7314667;19;9396;-69
2023/09/11 11:23:54;;;;;;;;;;;27.50;90.20;;;;;;7316050;19;9310;-70
2023/09/11 11:26:26;;;;;;;;;;;27.50;90.60;;;;;;7316992;19;10221;-70
2023/09/11 11:28:55;;;;;;;;;;;27.60;90.10;;;;;;7318579;19;9423;-71
2023/09/11 11:31:27;;;;;;;;;;;27.70;89.60;;;;;;7320627;19;9245;-69
2023/09/11 11:34:00;;;;;;;;;;;27.70;88.90;;;;;;7316461;19;12754;-69
2023/09/11 11:36:50;;;;;;;;;;;27.90;87.30;;;;;;7279265;19;9312;-70
2023/09/11 11:39:23;;;;;;;;;;;27.90;87.30;;;;;;7301049;19;9415;-70
2023/09/11 11:41:53;;;;;;;;;;;28.00;87.40;;;;;;7310112;19;9351;-70
2023/09/11 11:44:43;;;;;;;;;;;28.00;87.20;;;;;;7309214;19;9433;-70
2023/09/11 11:47:34;;;;;;;;;;;28.00;87.90;;;;;;7314977;19;9387;-70
2023/09/11 11:50:10;;;;;;;;;;;28.10;88.30;;;;;;7315341;19;9317;-70
2023/09/11 11:52:40;;;;;;;;;;;28.10;87.50;;;;;;7314778;19;9376;-70
2023/09/11 11:55:31;;;;;;;;;;;28.00;89.20;;;;;;7312979;19;9230;-70
2023/09/11 11:58:00;;;;;;;;;;;28.10;88.30;;;;;;7310236;19;9253;-70
2023/09/11 12:01:00;;;;;;;;;;;28.10;87.90;;;;;;7316545;19;9549;-70
2023/09/11 12:03:30;;;;;;;;;;;28.00;86.80;;;;;;7309438;19;9296;-70
2023/09/11 12:06:01;;;;;;;;;;;27.90;86.70;;;;;;7312325;19;9361;-70
2023/09/11 12:08:31;;;;;;;;;;;27.90;86.00;;;;;;7311552;19;9283;-70
2023/09/11 12:11:03;;;;;;;;;;;27.90;85.10;;;;;;7319101;19;9258;-70
2023/09/11 12:13:32;;;;;;;;;;;27.90;85.00;;;;;;7323050;19;9138;-70
2023/09/11 12:16:03;;;;;;;;;;;27.90;85.00;;;;;;7317888;19;9117;-71
2023/09/11 12:18:36;;;;;;;;;;;27.90;85.10;;;;;;7316163;19;9236;-71
2023/09/11 12:21:08;;;;;;;;;;;27.90;84.60;;;;;;7317624;19;9249;-70
2023/09/11 12:23:37;;;;;;;;;;;27.80;84.80;;;;;;7315216;19;10151;-70
2023/09/11 12:26:09;;;;;;;;;;;27.80;84.60;;;;;;7319129;19;9528;-70
2023/09/11 12:28:39;;;;;;;;;;;27.90;84.30;;;;;;7320144;19;9481;-70
2023/09/11 12:31:09;;;;;;;;;;;27.90;84.20;;;;;;7317337;19;9431;-70
2023/09/11 12:33:59;;;;;;;;;;;27.90;84.00;;;;;;7315381;19;10238;-70
2023/09/11 12:36:49;;;;;;;;;;;27.90;84.10;;;;;;7313735;19;9386;-70
2023/09/11 12:39:18;;;;;;;;;;;27.90;84.40;;;;;;7316562;19;9088;-70
2023/09/11 12:41:49;;;;;;;;;;;27.90;84.70;;;;;;7314703;19;9367;-70
2023/09/11 12:44:19;;;;;;;;;;;28.10;83.80;;;;;;7319977;19;10218;-70
2023/09/11 12:47:08;;;;;;;;;;;28.00;83.90;;;;;;7313116;19;9249;-70
2023/09/11 12:49:39;;;;;;;;;;;28.00;84.40;;;;;;7319426;19;10606;-70
2023/09/11 12:52:08;;;;;;;;;;;28.00;84.90;;;;;;7313224;19;9210;-70
2023/09/11 12:54:38;;;;;;;;;;;27.90;85.80;;;;;;7314704;19;9380;-70
2023/09/11 12:57:12;;;;;;;;;;;28.00;85.70;;;;;;7315487;19;9475;-70
2023/09/11 12:59:41;;;;;;;;;;;28.00;87.60;;;;;;7319949;19;11132;-70
2023/09/11 13:02:13;;;;;;;;;;;28.00;87.90;;;;;;7319956;19;9419;-70
2023/09/11 13:04:44;;;;;;;;;;;28.10;87.90;;;;;;7316394;19;11090;-70
2023/09/11 13:07:13;;;;;;;;;;;28.10;87.70;;;;;;7315597;19;9301;-70
2023/09/11 13:09:42;;;;;;;;;;;28.10;87.20;;;;;;7320082;19;9031;-70
2023/09/11 13:12:14;;;;;;;;;;;28.10;86.40;;;;;;7315994;19;9594;-70
2023/09/11 13:15:04;;;;;;;;;;;28.10;85.90;;;;;;7318924;19;9233;-70
2023/09/11 13:17:34;;;;;;;;;;;28.10;85.00;;;;;;7318897;19;9202;-70
2023/09/11 13:20:02;;;;;;;;;;;28.10;84.30;;;;;;7320363;19;9414;-70
2023/09/11 13:22:31;;;;;;;;;;;28.10;82.00;;;;;;7317002;19;10434;-70
2023/09/11 13:25:00;;;;;;;;;;;28.10;83.10;;;;;;7317436;19;9301;-70
2023/09/11 13:27:32;;;;;;;;;;;28.10;81.60;;;;;;7320704;19;9265;-70
2023/09/11 13:30:01;;;;;;;;;;;28.20;81.10;;;;;;7318578;19;9263;-70
2023/09/11 13:32:30;;;;;;;;;;;28.20;81.50;;;;;;7316139;19;9262;-70
2023/09/11 13:35:00;;;;;;;;;;;28.20;80.50;;;;;;7318201;19;9452;-70
2023/09/11 13:37:29;;;;;;;;;;;28.30;80.70;;;;;;7316784;19;9375;-70
2023/09/11 13:40:18;;;;;;;;;;;28.40;80.20;;;;;;7317202;19;9995;-70
2023/09/11 13:43:09;;;;;;;;;;;28.40;79.20;;;;;;7312219;19;10194;-70
2023/09/11 13:45:38;;;;;;;;;;;28.30;78.50;;;;;;7307301;19;9457;-71
2023/09/11 13:48:08;;;;;;;;;;;28.20;78.60;;;;;;7313856;19;9232;-70
2023/09/11 13:50:37;;;;;;;;;;;28.30;77.70;;;;;;7298363;19;10729;-71
2023/09/11 13:53:06;;;;;;;;;;;28.30;78.00;;;;;;7310009;19;9299;-70
2023/09/11 13:55:38;;;;;;;;;;;28.30;77.10;;;;;;7300171;19;10665;-70
2023/09/11 13:58:11;;;;;;;;;;;28.40;77.30;;;;;;7312473;19;9290;-69
2023/09/11 14:00:40;;;;;;;;;;;28.40;76.40;;;;;;7315335;19;9485;-72
2023/09/11 14:03:09;;;;;;;;;;;28.40;76.20;;;;;;7297429;19;8944;-71
2023/09/11 14:05:39;;;;;;;;;;;28.40;76.70;;;;;;7317571;19;9225;-71
2023/09/11 14:08:09;;;;;;;;;;;28.40;76.50;;;;;;7315852;19;9453;-71
2023/09/11 14:10:38;;;;;;;;;;;28.40;76.30;;;;;;7316513;19;9472;-71
2023/09/11 14:13:29;;;;;;;;;;;28.40;76.00;;;;;;7312729;19;9281;-71
2023/09/11 14:15:58;;;;;;;;;;;28.40;76.80;;;;;;7318832;19;10352;-71
2023/09/11 14:18:27;;;;;;;;;;;28.50;76.80;;;;;;7318072;19;9350;-71
2023/09/11 14:20:56;;;;;;;;;;;28.50;76.40;;;;;;7317887;19;9214;-71
2023/09/11 14:23:25;;;;;;;;;;;28.40;76.90;;;;;;7319071;19;9207;-71
2023/09/11 14:25:54;;;;;;;;;;;28.40;76.70;;;;;;7316214;19;9407;-71
2023/09/11 14:28:23;;;;;;;;;;;28.30;77.30;;;;;;7315049;19;9617;-71
2023/09/11 14:30:55;;;;;;;;;;;28.30;77.50;;;;;;7314822;19;9306;-71
2023/09/11 14:33:44;;;;;;;;;;;28.40;77.50;;;;;;7318724;19;9330;-71
2023/09/11 14:36:13;;;;;;;;;;;28.40;77.20;;;;;;7317022;19;9338;-71
2023/09/11 14:38:42;;;;;;;;;;;28.30;76.90;;;;;;7316943;19;9395;-71
2023/09/11 14:41:12;;;;;;;;;;;28.30;77.00;;;;;;7317246;19;9469;-71
2023/09/11 14:43:41;;;;;;;;;;;28.40;76.70;;;;;;7314971;19;9372;-71
2023/09/11 14:46:13;;;;;;;;;;;28.30;77.00;;;;;;7313735;19;9253;-71
2023/09/11 14:48:42;;;;;;;;;;;28.30;78.30;;;;;;7317180;19;9265;-71
2023/09/11 14:51:30;;;;;;;;;;;28.40;77.20;;;;;;7320006;19;9178;-71
2023/09/11 14:54:19;;;;;;;;;;;28.40;76.00;;;;;;7316580;19;9394;-71
2023/09/11 14:56:48;;;;;;;;;;;28.30;75.90;;;;;;7324953;19;9123;-71
2023/09/11 14:59:17;;;;;;;;;;;28.30;76.00;;;;;;7319131;19;9254;-71
2023/09/11 15:01:49;;;;;;;;;;;28.30;75.40;;;;;;7324742;19;9486;-71